Time,TemperatureF,DewpointF,PressureIn,WindDirection,WindDirectionDegrees,WindSpeedMPH,WindSpeedGustMPH,Humidity,HourlyPrecipIn,Conditions,Clouds,dailyrainin,SoftwareType,DateUTC
2013-04-30 00:00:00,60.3,57.3,30.03,NNE,28,0.0,1.0,90,0.00,RA,,0.00,WeatherDisplay:10.37,2013-04-30 04:00:00,
2013-04-30 00:30:00,60.1,57.1,30.02,NNW,333,0.0,2.0,90,0.00,OVC,,0.00,WeatherDisplay:10.37,2013-04-30 04:30:00,
2013-04-30 01:00:00,59.5,56.9,30.02,North,8,1.0,2.0,91,0.00,OVC,,0.00,WeatherDisplay:10.37,2013-04-30 05:00:00,
2013-04-30 01:30:00,59.0,56.4,30.02,ENE,60,1.0,3.0,91,0.00,OVC,,0.00,WeatherDisplay:10.37,2013-04-30 05:30:00,
2013-04-30 02:00:00,58.6,55.7,30.02,ENE,72,1.0,3.0,90,0.00,OVC,,0.00,WeatherDisplay:10.37,2013-04-30 06:00:00,
2013-04-30 02:30:00,58.3,55.4,30.02,NE,41,0.0,2.0,90,0.00,OVC,,0.00,WeatherDisplay:10.37,2013-04-30 06:30:00,
2013-04-30 03:00:00,58.1,55.2,30.02,NNE,27,0.0,3.0,90,0.00,OVC,,0.00,WeatherDisplay:10.37,2013-04-30 07:00:00,
2013-04-30 03:30:00,58.1,55.5,30.02,ENE,70,0.0,4.0,91,0.00,OVC,,0.00,WeatherDisplay:10.37,2013-04-30 07:30:00,
2013-04-30 04:00:00,57.8,55.2,30.02,ENE,67,0.0,3.0,91,0.00,OVC,,0.00,WeatherDisplay:10.37,2013-04-30 08:00:00,
2013-04-30 04:30:00,57.2,54.6,30.03,ESE,104,1.0,3.0,91,0.00,BKN,,0.00,WeatherDisplay:10.37,2013-04-30 08:30:00,
2013-04-30 05:00:00,57.2,54.6,30.04,East,90,0.0,2.0,91,0.00,BKN,,0.00,WeatherDisplay:10.37,2013-04-30 09:00:00,
2013-04-30 05:30:00,57.0,54.4,30.05,NE,37,0.0,2.0,91,0.00,BKN,,0.00,WeatherDisplay:10.37,2013-04-30 09:30:00,
2013-04-30 06:00:00,57.0,54.4,30.06,North,4,0.0,1.0,91,0.00,BKN,,0.00,WeatherDisplay:10.37,2013-04-30 10:00:00,
2013-04-30 06:30:00,57.2,54.9,30.07,NW,313,0.0,2.0,92,0.01,OVC,,0.01,WeatherDisplay:10.37,2013-04-30 10:30:00,
2013-04-30 07:00:00,57.2,54.9,30.08,NE,40,1.0,3.0,92,0.00,OVC,,0.01,WeatherDisplay:10.37,2013-04-30 11:00:00,
2013-04-30 07:30:00,57.4,55.1,30.09,NW,308,1.0,2.0,92,0.00,OVC,,0.01,WeatherDisplay:10.37,2013-04-30 11:30:00,
2013-04-30 08:00:00,57.6,55.3,30.10,ESE,108,0.0,3.0,92,0.00,OVC,,0.01,WeatherDisplay:10.37,2013-04-30 12:00:00,
2013-04-30 08:30:00,57.6,55.3,30.12,North,358,1.0,4.0,92,0.00,OVC,,0.01,WeatherDisplay:10.37,2013-04-30 12:30:00,
2013-04-30 09:00:00,57.7,55.4,30.12,NNE,18,1.0,3.0,92,0.00,OVC,,0.01,WeatherDisplay:10.37,2013-04-30 13:00:00,
2013-04-30 09:30:00,58.3,56.0,30.12,NNE,12,2.0,5.0,92,0.00,OVC,,0.01,WeatherDisplay:10.37,2013-04-30 13:30:00,
2013-04-30 10:00:00,59.2,56.9,30.12,North,5,2.0,5.0,92,0.00,OVC,,0.01,WeatherDisplay:10.37,2013-04-30 14:00:00,
2013-04-30 10:30:00,59.7,57.1,30.13,East,91,1.0,5.0,91,0.00,OVC,,0.01,WeatherDisplay:10.37,2013-04-30 14:30:00,
2013-04-30 11:00:00,60.4,57.5,30.13,East,94,2.0,5.0,90,0.00,OVC,,0.01,WeatherDisplay:10.37,2013-04-30 15:00:00,
2013-04-30 11:30:00,60.8,57.8,30.13,ENE,78,1.0,5.0,90,0.00,OVC,,0.01,WeatherDisplay:10.37,2013-04-30 15:30:00,
2013-04-30 12:00:00,61.2,58.0,30.13,NNE,29,1.0,4.0,89,0.00,OVC,,0.01,WeatherDisplay:10.37,2013-04-30 16:00:00,
2013-04-30 12:30:00,61.9,58.3,30.13,ENE,59,1.0,5.0,88,0.00,OVC,,0.01,WeatherDisplay:10.37,2013-04-30 16:30:00,
2013-04-30 13:00:00,62.4,58.2,30.13,NNE,19,1.0,5.0,86,0.00,OVC,,0.01,WeatherDisplay:10.37,2013-04-30 17:00:00,
2013-04-30 13:30:00,63.1,58.2,30.12,NE,39,2.0,4.0,84,0.00,OVC,,0.01,WeatherDisplay:10.37,2013-04-30 17:30:00,
2013-04-30 14:00:00,63.7,58.4,30.13,East,89,2.0,4.0,83,0.00,OVC,,0.01,WeatherDisplay:10.37,2013-04-30 18:00:00,
2013-04-30 14:30:00,63.9,58.6,30.13,East,85,1.0,4.0,83,0.00,OVC,,0.01,WeatherDisplay:10.37,2013-04-30 18:30:00,
2013-04-30 15:00:00,64.2,58.6,30.12,NE,54,0.0,2.0,82,0.00,OVC,,0.01,WeatherDisplay:10.37,2013-04-30 19:00:00,
2013-04-30 15:30:00,64.4,58.8,30.12,East,101,1.0,3.0,82,0.00,OVC,,0.01,WeatherDisplay:10.37,2013-04-30 19:30:00,
2013-04-30 16:00:00,64.8,59.5,30.11,East,81,2.0,4.0,83,0.00,OVC,,0.01,WeatherDisplay:10.37,2013-04-30 20:00:00,
2013-04-30 16:30:00,64.8,59.2,30.11,NE,56,1.0,2.0,82,0.00,OVC,,0.01,WeatherDisplay:10.37,2013-04-30 20:30:00,
2013-04-30 17:00:00,65.2,59.2,30.11,NE,39,1.0,3.0,81,0.00,OVC,,0.01,WeatherDisplay:10.37,2013-04-30 21:00:00,
2013-04-30 17:30:00,64.8,58.8,30.13,ESE,103,1.0,3.0,81,0.00,OVC,,0.01,WeatherDisplay:10.37,2013-04-30 21:30:00,
2013-04-30 18:00:00,64.8,58.4,30.13,East,84,1.0,3.0,80,0.00,OVC,,0.01,WeatherDisplay:10.37,2013-04-30 22:00:00,
2013-04-30 18:30:00,64.4,58.1,30.15,ENE,71,1.0,4.0,80,0.00,OVC,,0.01,WeatherDisplay:10.37,2013-04-30 22:30:00,
2013-04-30 19:00:00,64.0,57.4,30.15,East,86,1.0,3.0,79,0.00,OVC,,0.01,WeatherDisplay:10.37,2013-04-30 23:00:00,
2013-04-30 19:30:00,63.4,57.1,30.16,North,7,0.0,2.0,80,0.00,OVC,,0.01,WeatherDisplay:10.37,2013-04-30 23:30:00,
2013-04-30 20:00:00,62.6,56.3,30.17,ENE,74,0.0,2.0,80,0.00,OVC,,0.01,WeatherDisplay:10.37,2013-05-01 00:00:00,
2013-04-30 20:30:00,62.1,56.2,30.17,East,79,1.0,4.0,81,0.00,CLR,,0.01,WeatherDisplay:10.37,2013-05-01 00:30:00,
2013-04-30 21:00:00,61.3,55.8,30.18,North,6,1.0,3.0,82,0.00,CLR,,0.01,WeatherDisplay:10.37,2013-05-01 01:00:00,
2013-04-30 21:30:00,60.1,54.9,30.19,NE,42,0.0,2.0,83,0.00,CLR,,0.01,WeatherDisplay:10.37,2013-05-01 01:30:00,
2013-04-30 22:00:00,59.5,54.4,30.19,WNW,298,0.0,1.0,83,0.00,CLR,,0.01,WeatherDisplay:10.37,2013-05-01 02:00:00,
2013-04-30 22:30:00,58.6,53.8,30.19,North,5,0.0,1.0,84,0.00,CLR,,0.01,WeatherDisplay:10.37,2013-05-01 02:30:00,
2013-04-30 23:00:00,57.9,53.4,30.19,NNW,332,0.0,1.0,85,0.00,CLR,,0.01,WeatherDisplay:10.37,2013-05-01 03:00:00,
2013-04-30 23:30:00,57.4,53.2,30.19,North,353,0.0,2.0,86,0.00,CLR,,0.01,WeatherDisplay:10.37,2013-05-01 03:30:00,